Time;durP1;ratioP1;P1;durP2;ratioP2;P2;SDS_P1;SDS_P2;PMS_P1;PMS_P2;Temp;Humidity;BMP_temperature;BMP_pressure;BME280_temperature;BME280_humidity;BME280_pressure;Samples;Min_cycle;Max_cycle;Signal;HPM_P1;HPM_P2
2023/04/10 00:01:35;;;;;;;0.57;0.57;;;;;;;8.36;87.46;95322.41;5133149;27;20445;-55
2023/04/10 00:04:03;;;;;;;2.70;1.87;;;;;;;8.49;87.86;95320.13;5133719;27;20453;-55
2023/04/10 00:06:33;;;;;;;0.90;0.90;;;;;;;8.02;84.31;95248.00;5134394;27;20973;-55
2023/04/10 00:09:01;;;;;;;0.90;0.90;;;;;;;8.50;82.83;95319.03;5119948;27;20520;-55
2023/04/10 00:11:31;;;;;;;1.23;0.90;;;;;;;8.46;84.08;95315.34;5134329;27;20448;-55
2023/04/10 00:13:59;;;;;;;1.90;1.27;;;;;;;8.37;84.25;95301.03;5133792;27;20913;-55
2023/04/10 00:16:27;;;;;;;0.40;0.40;;;;;;;8.43;82.18;95307.13;5134007;27;20834;-55
2023/04/10 00:18:56;;;;;;;0.80;0.80;;;;;;;8.48;82.18;95309.78;5106977;27;20560;-55
2023/04/10 00:21:25;;;;;;;0.47;0.47;;;;;;;8.61;82.05;95304.84;5133722;27;20442;-55
2023/04/10 00:23:53;;;;;;;0.80;0.77;;;;;;;8.53;81.63;95302.69;5134118;27;20472;-56
2023/04/10 00:26:22;;;;;;;0.63;0.60;;;;;;;8.76;81.75;95309.41;5134183;27;20511;-55
2023/04/10 00:28:52;;;;;;;0.50;0.40;;;;;;;8.39;82.24;95300.78;5133953;27;21016;-55
2023/04/10 00:31:20;;;;;;;1.50;0.90;;;;;;;8.65;82.16;95295.34;5133506;27;20429;-55
2023/04/10 00:33:49;;;;;;;0.30;0.27;;;;;;;8.61;81.52;95296.94;5134466;27;20478;-55
2023/04/10 00:36:18;;;;;;;0.40;0.30;;;;;;;8.62;80.21;95303.00;5133572;27;20466;-55
2023/04/10 00:38:48;;;;;;;0.60;0.33;;;;;;;8.93;80.17;95302.88;5133242;27;20468;-55
2023/04/10 00:41:16;;;;;;;1.57;0.50;;;;;;;9.27;81.27;95297.97;5133631;27;20428;-55
2023/04/10 00:43:45;;;;;;;0.43;0.30;;;;;;;9.39;77.12;95289.78;5134048;27;20488;-55
2023/04/10 00:46:16;;;;;;;0.60;0.60;;;;;;;9.00;76.90;95278.06;5133683;27;21022;-55
2023/04/10 00:48:44;;;;;;;0.50;0.40;;;;;;;9.21;76.98;95293.72;5134084;27;20434;-55
2023/04/10 00:51:13;;;;;;;1.07;1.07;;;;;;;8.89;77.77;95291.25;5133582;27;20497;-55
2023/04/10 00:53:41;;;;;;;0.40;0.40;;;;;;;8.85;80.87;95290.16;5133879;27;20453;-55
2023/04/10 00:56:10;;;;;;;0.40;0.40;;;;;;;9.17;80.06;95287.38;5106552;27;20439;-55
2023/04/10 00:58:38;;;;;;;0.53;0.50;;;;;;;9.14;80.41;95279.16;5133328;27;20470;-55
2023/04/10 01:01:07;;;;;;;0.40;0.40;;;;;;;9.32;80.27;95273.38;5133706;27;20929;-55
2023/04/10 01:03:38;;;;;;;0.50;0.50;;;;;;;8.78;82.51;95279.03;5133818;27;20484;-55
2023/04/10 01:06:16;;;;;;;5.33;0.97;;;;;;;8.99;83.15;95273.81;5131011;27;20435;-55
2023/04/10 01:08:53;;;;;;;3.33;0.60;;;;;;;8.72;83.66;95274.00;5130216;27;20533;-55
2023/04/10 01:11:33;;;;;;;0.50;0.40;;;;;;;8.36;87.04;95269.59;5133681;27;20465;-56
2023/04/10 01:14:07;;;;;;;2.00;0.93;;;;;;;8.59;88.84;95277.91;5132573;27;20529;-55
2023/04/10 01:16:43;;;;;;;0.37;0.30;;;;;;;8.85;84.99;95266.38;5132834;27;20447;-55
2023/04/10 01:19:26;;;;;;;1.13;1.00;;;;;;;9.18;84.90;95269.66;5132472;27;20477;-55
2023/04/10 01:21:56;;;;;;;0.30;0.30;;;;;;;9.40;82.65;95268.38;5132971;27;21013;-55
2023/04/10 01:24:43;;;;;;;0.47;0.30;;;;;;;9.33;83.33;95270.47;5133196;27;20840;-55
2023/04/10 01:27:27;;;;;;;0.40;0.30;;;;;;;9.38;82.49;95267.03;5121592;27;20464;-55
2023/04/10 01:29:58;;;;;;;0.50;0.40;;;;;;;9.64;80.62;95271.28;5132614;27;20880;-55
2023/04/10 01:32:30;;;;;;;0.30;0.30;;;;;;;9.65;78.98;95259.66;5132758;27;20438;-55
2023/04/10 01:35:02;;;;;;;0.53;0.53;;;;;;;9.21;78.61;95255.91;5132562;27;20494;-55
2023/04/10 01:37:33;;;;;;;1.27;0.60;;;;;;;9.07;78.81;95262.75;5132667;27;20449;-55
2023/04/10 01:40:05;;;;;;;0.40;0.30;;;;;;;9.23;79.98;95269.66;5132697;27;21011;-55
2023/04/10 01:42:43;;;;;;;0.40;0.40;;;;;;;8.74;80.55;95251.53;5132889;27;20446;-55
2023/04/10 01:45:18;;;;;;;0.60;0.50;;;;;;;8.98;81.91;95277.53;5132510;27;20442;-55
2023/04/10 01:47:47;;;;;;;0.47;0.40;;;;;;;9.09;82.35;95274.66;5132850;27;20435;-55
2023/04/10 01:50:16;;;;;;;0.60;0.40;;;;;;;8.61;82.74;95262.59;5132655;27;20442;-55
2023/04/10 01:52:46;;;;;;;0.83;0.83;;;;;;;8.36;84.10;95251.91;5131950;27;21016;-55
2023/04/10 01:55:15;;;;;;;1.50;0.60;;;;;;;8.50;85.12;95266.22;5132938;27;20785;-55
2023/04/10 01:57:44;;;;;;;0.50;0.50;;;;;;;8.02;85.22;95264.59;5132049;27;20442;-55
2023/04/10 02:00:15;;;;;;;0.43;0.40;;;;;;;8.44;87.25;95269.91;5127817;27;20472;-55
2023/04/10 02:02:44;;;;;;;0.80;0.60;;;;;;;8.41;84.06;95270.41;5106495;28;20433;-55
2023/04/10 02:05:15;;;;;;;0.30;0.20;;;;;;;8.92;83.39;95268.78;5132600;28;20443;-56
2023/04/10 02:07:48;;;;;;;0.30;0.20;;;;;;;9.14;80.38;95266.72;5132568;28;20522;-55
2023/04/10 02:10:22;;;;;;;0.30;0.20;;;;;;;8.86;80.25;95183.41;5132008;28;20447;-55
2023/04/10 02:12:55;;;;;;;0.63;0.63;;;;;;;9.06;79.54;95258.53;5132564;28;20440;-55
2023/04/10 02:15:27;;;;;;;0.40;0.20;;;;;;;8.77;81.74;95253.69;5132183;27;20439;-55
2023/04/10 02:17:58;;;;;;;0.50;0.40;;;;;;;8.90;80.97;95255.81;5132052;28;20447;-55
2023/04/10 02:20:27;;;;;;;0.87;0.60;;;;;;;8.60;80.95;95249.66;5131957;28;21024;-55
2023/04/10 02:22:58;;;;;;;0.53;0.50;;;;;;;8.45;82.15;95253.00;5131871;28;20441;-55
2023/04/10 02:25:26;;;;;;;0.50;0.40;;;;;;;8.56;84.10;95254.63;5132549;27;21066;-55
2023/04/10 02:27:55;;;;;;;0.97;0.60;;;;;;;8.52;82.37;95258.06;5136384;27;20433;-56
2023/04/10 02:30:23;;;;;;;0.40;0.40;;;;;;;8.44;82.67;95250.63;5136349;27;20961;-56
2023/04/10 02:32:54;;;;;;;0.80;0.50;;;;;;;8.71;82.07;95252.06;5136223;27;20436;-56
2023/04/10 02:35:22;;;;;;;0.40;0.30;;;;;;;9.06;81.27;95248.72;5136369;27;20501;-56
2023/04/10 02:37:50;;;;;;;0.97;0.97;;;;;;;8.93;79.05;95241.28;5136010;27;20457;-56
2023/04/10 02:40:19;;;;;;;0.60;0.50;;;;;;;9.12;79.17;95244.25;5136240;27;20477;-56
2023/04/10 02:42:47;;;;;;;0.50;0.30;;;;;;;9.15;80.67;95241.88;5136136;27;20483;-56
2023/04/10 02:45:15;;;;;;;0.83;0.83;;;;;;;9.28;78.55;95232.66;5135687;27;20525;-56
2023/04/10 02:47:44;;;;;;;0.77;0.40;;;;;;;9.11;79.10;95240.81;5135960;27;20432;-56
2023/04/10 02:50:14;;;;;;;0.60;0.60;;;;;;;9.22;78.08;95194.03;5135977;27;20500;-56
2023/04/10 02:52:42;;;;;;;0.40;0.30;;;;;;;9.48;76.53;95245.91;5135664;27;20815;-56
2023/04/10 02:55:11;;;;;;;0.57;0.47;;;;;;;9.09;77.07;95239.47;5135610;27;20521;-56
2023/04/10 02:57:39;;;;;;;1.03;1.03;;;;;;;9.02;78.69;95231.81;5136152;27;20433;-56
2023/04/10 03:00:09;;;;;;;0.30;0.20;;;;;;;9.23;78.70;95248.50;5135807;27;20465;-56
2023/04/10 03:02:37;;;;;;;2.90;0.40;;;;;;;9.39;79.16;95239.53;5135604;27;20532;-56
2023/04/10 03:05:07;;;;;;;0.70;0.50;;;;;;;9.47;78.14;95241.66;5135759;27;20532;-56
2023/04/10 03:07:37;;;;;;;0.83;0.83;;;;;;;9.45;78.95;95243.78;5122911;27;20468;-56
2023/04/10 03:10:06;;;;;;;1.17;0.40;;;;;;;9.37;77.37;95247.72;5134957;27;20445;-56
2023/04/10 03:12:35;;;;;;;0.50;0.50;;;;;;;8.91;77.70;95249.47;5135708;27;20864;-56
2023/04/10 03:15:03;;;;;;;0.90;0.90;;;;;;;9.17;76.87;95247.69;5135300;27;20953;-56
2023/04/10 03:17:32;;;;;;;0.90;0.60;;;;;;;9.24;78.99;95242.16;5135545;27;20429;-56
2023/04/10 03:20:00;;;;;;;0.50;0.50;;;;;;;9.04;78.34;95234.19;5135143;27;20559;-56
2023/04/10 03:22:31;;;;;;;5.00;1.27;;;;;;;8.88;78.86;95233.34;5135343;27;20844;-56
2023/04/10 03:25:01;;;;;;;0.47;0.40;;;;;;;9.07;79.17;95239.75;5134594;27;20474;-56
2023/04/10 03:27:31;;;;;;;0.50;0.50;;;;;;;8.64;77.75;95242.78;5135389;27;20460;-56
2023/04/10 03:29:59;;;;;;;0.30;0.30;;;;;;;8.66;77.49;95244.13;5134935;27;20502;-56
2023/04/10 03:32:29;;;;;;;0.60;0.40;;;;;;;8.63;78.31;95241.97;5135114;27;20480;-56
2023/04/10 03:34:58;;;;;;;2.47;1.10;;;;;;;8.56;78.64;95236.16;5135236;27;20520;-56
2023/04/10 03:37:27;;;;;;;1.80;1.17;;;;;;;8.69;78.92;95238.31;5135328;27;20443;-56
2023/04/10 03:39:55;;;;;;;0.40;0.30;;;;;;;8.77;77.94;95239.66;5135297;27;20550;-56
2023/04/10 03:42:25;;;;;;;2.90;1.63;;;;;;;8.65;78.39;95231.94;5134847;27;20438;-56
2023/04/10 03:44:54;;;;;;;9.40;2.77;;;;;;;8.72;79.23;95237.81;5134956;27;20477;-56
2023/04/10 03:47:22;;;;;;;14.47;8.70;;;;;;;8.61;79.99;95236.16;5134740;27;20434;-56
2023/04/10 03:49:50;;;;;;;23.50;5.50;;;;;;;8.78;80.53;95241.22;5134903;27;20484;-56
2023/04/10 03:52:19;;;;;;;8.50;3.80;;;;;;;8.77;80.53;95243.09;5134451;27;20441;-56
2023/04/10 03:54:48;;;;;;;3.00;2.70;;;;;;;8.94;80.17;95240.25;5134427;27;20441;-55
2023/04/10 03:57:18;;;;;;;3.80;3.60;;;;;;;9.11;78.94;95243.44;5133614;27;20531;-56
2023/04/10 03:59:48;;;;;;;4.00;0.70;;;;;;;9.12;78.21;95244.25;5134351;27;20448;-56
2023/04/10 04:02:16;;;;;;;1.03;0.87;;;;;;;9.24;77.98;95250.88;5134096;27;20907;-55
2023/04/10 04:04:44;;;;;;;1.23;0.40;;;;;;;9.24;78.84;95244.78;5134278;27;20968;-55
2023/04/10 04:07:13;;;;;;;1.23;1.03;;;;;;;8.90;76.83;95250.53;5133874;27;20816;-55
2023/04/10 04:09:41;;;;;;;0.50;0.43;;;;;;;9.07;78.10;95260.09;5134349;27;20825;-55
2023/04/10 04:12:10;;;;;;;4.80;0.80;;;;;;;9.11;77.41;95255.91;5134300;27;20426;-55
2023/04/10 04:14:38;;;;;;;0.40;0.40;;;;;;;9.11;77.53;95258.53;5134306;27;20452;-55
2023/04/10 04:17:08;;;;;;;1.00;1.00;;;;;;;8.73;76.59;95257.06;5134109;27;20901;-55
2023/04/10 04:19:36;;;;;;;2.53;2.20;;;;;;;8.92;76.34;95261.66;5134305;27;20499;-55
2023/04/10 04:22:04;;;;;;;0.40;0.30;;;;;;;9.00;76.55;95256.91;5133286;27;20560;-55
2023/04/10 04:24:33;;;;;;;0.47;0.30;;;;;;;9.31;76.40;95258.56;5134310;27;21140;-55
2023/04/10 04:27:01;;;;;;;0.50;0.40;;;;;;;9.55;75.21;95257.00;5134324;27;20520;-55
2023/04/10 04:29:29;;;;;;;0.63;0.63;;;;;;;9.70;74.48;95250.91;5133823;27;20437;-55
2023/04/10 04:31:58;;;;;;;0.40;0.40;;;;;;;9.71;73.47;95249.88;5134218;27;20453;-55
2023/04/10 04:34:28;;;;;;;0.50;0.50;;;;;;;9.58;73.11;95245.91;5133792;27;20442;-55
2023/04/10 04:36:56;;;;;;;0.93;0.30;;;;;;;9.65;74.55;95254.38;5133900;27;20603;-55
2023/04/10 04:39:24;;;;;;;0.40;0.40;;;;;;;9.67;74.43;95252.25;5133713;27;20442;-55
2023/04/10 04:41:52;;;;;;;0.70;0.70;;;;;;;9.57;72.69;95247.75;5133937;27;20483;-55
2023/04/10 04:44:21;;;;;;;0.63;0.63;;;;;;;9.52;71.53;95247.75;5119803;27;20434;-55
2023/04/10 04:46:49;;;;;;;1.17;1.17;;;;;;;9.26;71.60;95227.59;5133546;27;20439;-55
2023/04/10 04:49:17;;;;;;;3.83;1.50;;;;;;;9.18;70.55;95235.28;5132352;27;20469;-55
2023/04/10 04:51:47;;;;;;;0.30;0.20;;;;;;;9.54;70.94;95255.41;5133729;27;20530;-57
2023/04/10 04:54:15;;;;;;;0.60;0.57;;;;;;;10.02;69.86;95252.22;5133336;27;20481;-55
2023/04/10 04:56:44;;;;;;;0.50;0.40;;;;;;;10.43;68.08;95255.63;5133331;27;20445;-55
2023/04/10 04:59:13;;;;;;;0.70;0.70;;;;;;;10.76;66.72;95254.19;5132829;27;20435;-55
2023/04/10 05:01:41;;;;;;;0.57;0.50;;;;;;;10.81;67.22;95222.34;5133118;27;20924;-56
2023/04/10 05:04:10;;;;;;;0.60;0.60;;;;;;;11.19;65.35;95250.78;5133493;27;20529;-56
2023/04/10 05:06:38;;;;;;;0.63;0.63;;;;;;;11.09;64.55;95250.84;5133359;27;20449;-55
2023/04/10 05:09:08;;;;;;;0.87;0.43;;;;;;;11.10;62.72;95233.88;5133036;27;20462;-55
2023/04/10 05:11:37;;;;;;;0.30;0.30;;;;;;;11.30;64.10;95252.34;5132677;27;20450;-55
2023/04/10 05:14:06;;;;;;;0.33;0.23;;;;;;;11.30;63.63;95244.38;5122287;27;20441;-55
2023/04/10 05:16:34;;;;;;;0.47;0.47;;;;;;;11.20;61.62;95249.75;5132659;27;20478;-55
2023/04/10 05:19:03;;;;;;;0.73;0.73;;;;;;;11.44;62.36;95247.97;5132843;27;20817;-55
2023/04/10 05:21:31;;;;;;;0.30;0.20;;;;;;;11.57;61.96;95248.41;5132236;27;20486;-55
2023/04/10 05:23:59;;;;;;;0.40;0.30;;;;;;;11.36;60.27;95245.91;5131819;27;20554;-55
2023/04/10 05:26:29;;;;;;;0.77;0.77;;;;;;;11.20;60.91;95247.09;5132719;27;20443;-55
2023/04/10 05:28:57;;;;;;;0.40;0.30;;;;;;;11.51;60.76;95254.84;5132476;27;20443;-55
2023/04/10 05:31:26;;;;;;;0.40;0.30;;;;;;;11.62;59.28;95254.50;5132728;27;20847;-55
2023/04/10 05:33:54;;;;;;;0.63;0.60;;;;;;;11.35;59.16;95252.28;5133215;27;20446;-55
2023/04/10 05:36:23;;;;;;;0.30;0.20;;;;;;;11.35;58.71;95207.19;5132626;27;20514;-55
2023/04/10 05:38:51;;;;;;;0.30;0.20;;;;;;;11.45;59.69;95248.78;5132623;27;20434;-55
2023/04/10 05:41:20;;;;;;;0.40;0.37;;;;;;;11.42;59.16;95234.19;5131659;27;20471;-55
2023/04/10 05:43:50;;;;;;;0.50;0.50;;;;;;;11.43;61.55;95256.22;5132461;27;20525;-55
2023/04/10 05:46:21;;;;;;;0.37;0.30;;;;;;;11.60;60.79;95256.63;5132362;27;20443;-55
2023/04/10 05:48:50;;;;;;;0.40;0.40;;;;;;;11.78;59.49;95248.03;5132906;27;20515;-55
2023/04/10 05:51:19;;;;;;;0.93;0.30;;;;;;;11.63;59.29;95242.00;5105981;27;20991;-56
2023/04/10 05:53:48;;;;;;;0.40;0.40;;;;;;;11.75;60.56;95247.78;5132778;27;20431;-56
2023/04/10 05:56:17;;;;;;;0.57;0.57;;;;;;;11.58;58.24;95234.09;5131604;27;20477;-56
2023/04/10 05:58:45;;;;;;;0.50;0.40;;;;;;;11.86;59.68;95251.97;5131316;27;20543;-56
2023/04/10 06:01:15;;;;;;;0.40;0.30;;;;;;;11.92;56.57;95243.66;5132158;27;20648;-56
2023/04/10 06:03:43;;;;;;;0.40;0.30;;;;;;;11.72;56.90;95201.34;5130228;27;20470;-56
2023/04/10 06:06:12;;;;;;;0.40;0.40;;;;;;;12.20;56.65;95247.38;5121910;28;20453;-56
2023/04/10 06:08:40;;;;;;;0.30;0.20;;;;;;;12.22;59.55;95216.00;5118169;28;20813;-56
2023/04/10 06:11:09;;;;;;;0.30;0.30;;;;;;;12.19;56.03;95253.78;5131896;28;20446;-56
2023/04/10 06:13:37;;;;;;;0.30;0.30;;;;;;;12.27;56.63;95244.41;5132064;27;20816;-56
2023/04/10 06:16:06;;;;;;;0.40;0.30;;;;;;;12.32;55.63;95237.16;5132337;27;20450;-56
2023/04/10 06:18:37;;;;;;;0.63;0.60;;;;;;;12.69;55.61;95239.16;5132044;27;20435;-56
2023/04/10 06:21:06;;;;;;;0.50;0.30;;;;;;;12.39;54.83;95221.69;5132478;28;20553;-56
2023/04/10 06:23:34;;;;;;;0.40;0.33;;;;;;;12.53;54.81;95243.84;5132011;28;20899;-56
2023/04/10 06:26:03;;;;;;;1.43;1.33;;;;;;;12.69;56.17;95234.66;5131959;27;20454;-57
2023/04/10 06:28:31;;;;;;;0.50;0.47;;;;;;;11.75;55.43;95123.00;5131642;28;20442;-57
2023/04/10 06:31:02;;;;;;;0.40;0.30;;;;;;;12.68;54.26;95147.16;5131404;27;20441;-56
2023/04/10 06:33:34;;;;;;;0.50;0.40;;;;;;;12.90;51.43;95235.19;5106000;28;20950;-53
2023/04/10 06:36:05;;;;;;;0.50;0.40;;;;;;;13.12;52.66;95242.66;5131450;27;20467;-55
2023/04/10 06:38:36;;;;;;;0.50;0.30;;;;;;;13.06;52.14;95243.75;5131957;28;20894;-55
2023/04/10 06:41:05;;;;;;;0.70;0.50;;;;;;;13.33;51.49;95236.75;5131616;28;20442;-55
2023/04/10 06:43:34;;;;;;;0.60;0.60;;;;;;;12.70;51.17;95156.44;5131989;28;20439;-55
2023/04/10 06:46:04;;;;;;;0.57;0.57;;;;;;;13.27;53.94;95221.16;5131442;28;20794;-55
2023/04/10 06:48:32;;;;;;;0.80;0.80;;;;;;;13.28;51.09;95230.72;5131479;28;20526;-55
2023/04/10 06:51:01;;;;;;;0.50;0.40;;;;;;;12.33;50.34;95174.97;5131102;27;20529;-55
2023/04/10 06:53:30;;;;;;;0.50;0.50;;;;;;;13.12;51.75;95235.47;5131961;28;20470;-55
2023/04/10 06:55:58;;;;;;;0.40;0.33;;;;;;;13.37;50.94;95231.66;5131799;28;20430;-55
2023/04/10 06:58:30;;;;;;;0.30;0.30;;;;;;;13.19;50.49;95235.09;5132334;27;20523;-54
2023/04/10 07:01:02;;;;;;;0.60;0.40;;;;;;;13.47;51.91;95231.50;5131440;28;20439;-55
2023/04/10 07:03:32;;;;;;;0.40;0.40;;;;;;;13.32;50.06;95234.38;5131679;27;20474;-55
2023/04/10 07:06:02;;;;;;;0.60;0.60;;;;;;;13.57;50.33;95230.56;5131180;28;20443;-55
2023/04/10 07:08:32;;;;;;;0.40;0.30;;;;;;;13.77;49.11;95231.03;5131124;27;20545;-55
2023/04/10 07:11:00;;;;;;;0.40;0.30;;;;;;;13.77;50.15;95225.72;5131189;27;20525;-55
2023/04/10 07:13:28;;;;;;;0.40;0.30;;;;;;;13.87;47.95;95219.41;5133608;27;20954;-55
2023/04/10 07:15:56;;;;;;;0.77;0.30;;;;;;;14.07;49.88;95226.28;5135165;27;20470;-55
2023/04/10 07:18:25;;;;;;;0.40;0.30;;;;;;;14.08;49.68;95226.00;5134267;27;20446;-56
2023/04/10 07:20:54;;;;;;;0.80;0.50;;;;;;;13.49;48.08;95217.88;5134558;27;20523;-55
2023/04/10 07:23:22;;;;;;;1.07;0.97;;;;;;;13.51;47.46;95181.91;5131611;27;20478;-55
2023/04/10 07:25:52;;;;;;;2.43;0.30;;;;;;;13.65;48.77;95216.59;5125655;27;20459;-55
2023/04/10 07:28:20;;;;;;;0.43;0.40;;;;;;;13.46;46.03;95179.31;5135135;27;20442;-55
2023/04/10 07:30:48;;;;;;;0.50;0.40;;;;;;;13.60;48.27;95225.47;5135177;27;20471;-56
2023/04/10 07:33:17;;;;;;;1.27;0.40;;;;;;;13.20;47.30;95202.09;5134889;27;20514;-55
2023/04/10 07:35:45;;;;;;;0.40;0.30;;;;;;;13.13;46.29;95151.13;5135261;27;20466;-55
2023/04/10 07:38:14;;;;;;;0.50;0.40;;;;;;;14.15;47.92;95210.41;5128497;27;20546;-55
2023/04/10 07:40:42;;;;;;;0.50;0.50;;;;;;;13.41;45.58;95088.88;5126361;27;20453;-55
2023/04/10 07:43:12;;;;;;;0.47;0.30;;;;;;;13.91;46.02;95215.88;5134950;27;20477;-55
2023/04/10 07:45:41;;;;;;;0.30;0.30;;;;;;;13.55;47.08;95225.53;5134962;27;20439;-55
2023/04/10 07:48:10;;;;;;;0.40;0.30;;;;;;;13.42;47.02;95218.25;5134441;27;20989;-55
2023/04/10 07:50:38;;;;;;;0.50;0.50;;;;;;;14.09;47.06;95222.22;5133025;27;20833;-55
2023/04/10 07:53:06;;;;;;;0.53;0.53;;;;;;;14.35;47.88;95210.06;5122475;27;20445;-55
2023/04/10 07:55:38;;;;;;;0.50;0.30;;;;;;;14.22;46.17;95215.38;5134619;27;20822;-55
2023/04/10 07:58:06;;;;;;;0.30;0.20;;;;;;;14.11;46.33;95163.31;5134651;27;20507;-56
2023/04/10 08:00:36;;;;;;;0.40;0.30;;;;;;;13.87;45.30;95166.94;5134369;27;20521;-56
2023/04/10 08:03:05;;;;;;;0.30;0.20;;;;;;;14.10;45.88;95193.72;5134213;27;21020;-56
2023/04/10 08:05:35;;;;;;;0.40;0.33;;;;;;;13.88;45.90;95162.41;5134329;27;20439;-56
2023/04/10 08:08:03;;;;;;;0.30;0.20;;;;;;;14.35;45.54;95203.94;5134561;27;20441;-55
2023/04/10 08:10:31;;;;;;;0.30;0.20;;;;;;;14.10;46.85;95215.03;5134090;27;20509;-56
2023/04/10 08:13:00;;;;;;;0.40;0.30;;;;;;;13.93;46.90;95211.06;5134200;27;20802;-56
2023/04/10 08:15:28;;;;;;;0.30;0.20;;;;;;;14.10;46.00;95191.84;5133865;27;20431;-56
2023/04/10 08:17:58;;;;;;;0.43;0.30;;;;;;;14.41;46.27;95203.56;5133837;27;20442;-56
2023/04/10 08:20:27;;;;;;;0.77;0.57;;;;;;;14.38;45.76;95211.34;5133931;27;20512;-55
2023/04/10 08:22:55;;;;;;;0.50;0.50;;;;;;;14.18;44.70;95211.69;5132599;27;20476;-56
2023/04/10 08:25:39;;;;;;;0.53;0.53;;;;;;;14.35;45.91;95202.06;5134120;27;20439;-55
2023/04/10 08:28:08;;;;;;;0.60;0.40;;;;;;;14.13;46.18;95207.25;5133616;27;20446;-55
2023/04/10 08:30:36;;;;;;;0.40;0.30;;;;;;;14.17;46.93;95212.78;5133816;27;20463;-56
2023/04/10 08:33:06;;;;;;;0.33;0.30;;;;;;;13.74;45.71;95204.19;5133570;27;20426;-55
2023/04/10 08:35:34;;;;;;;0.50;0.40;;;;;;;13.79;45.58;95212.88;5134248;27;20522;-55
2023/04/10 08:38:03;;;;;;;0.40;0.40;;;;;;;13.70;45.71;95203.19;5133652;27;20461;-55
2023/04/10 08:40:40;;;;;;;0.30;0.20;;;;;;;13.71;45.28;95210.88;5133916;27;20543;-55
2023/04/10 08:43:09;;;;;;;0.40;0.40;;;;;;;14.08;46.23;95201.22;5133434;27;20553;-55
2023/04/10 08:45:37;;;;;;;0.40;0.40;;;;;;;14.17;45.44;95202.91;5133473;27;21002;-55
2023/04/10 08:48:08;;;;;;;0.40;0.30;;;;;;;14.16;46.38;95173.91;5132830;27;20471;-55
2023/04/10 08:50:42;;;;;;;1.03;0.27;;;;;;;14.28;44.71;95198.19;5133154;27;20447;-55
2023/04/10 08:53:13;;;;;;;0.30;0.20;;;;;;;13.99;44.39;95159.25;5133335;27;20442;-56
2023/04/10 08:55:42;;;;;;;0.67;0.60;;;;;;;13.59;44.79;95068.63;5132624;27;20530;-55
2023/04/10 08:58:12;;;;;;;0.40;0.30;;;;;;;14.61;44.24;95192.50;5133434;27;20538;-55
2023/04/10 09:00:40;;;;;;;0.40;0.40;;;;;;;14.72;43.25;95184.31;5133312;27;20439;-55
2023/04/10 09:03:12;;;;;;;0.63;0.63;;;;;;;14.51;42.68;95171.38;5133110;27;20577;-55
2023/04/10 09:05:41;;;;;;;0.30;0.20;;;;;;;13.84;44.29;95116.91;5132911;27;20900;-55
2023/04/10 09:08:11;;;;;;;0.30;0.20;;;;;;;14.38;43.20;95180.16;5133459;27;20442;-56
2023/04/10 09:10:39;;;;;;;0.40;0.30;;;;;;;14.32;41.93;95180.56;5132746;27;20439;-55
2023/04/10 09:13:07;;;;;;;0.30;0.20;;;;;;;14.51;41.05;95175.91;5133422;27;20446;-55
2023/04/10 09:15:57;;;;;;;0.30;0.30;;;;;;;14.68;40.50;95152.09;5132860;27;20435;-55
2023/04/10 09:18:44;;;;;;;0.30;0.20;;;;;;;14.72;40.96;95152.28;5132872;27;20546;-55
2023/04/10 09:21:15;;;;;;;0.40;0.40;;;;;;;15.04;40.17;95157.47;5132981;27;20445;-55
2023/04/10 09:23:45;;;;;;;0.30;0.20;;;;;;;14.56;41.65;95127.81;5106097;27;20555;-55
2023/04/10 09:26:24;;;;;;;0.33;0.27;;;;;;;14.73;42.17;95151.97;5132134;27;20441;-56
2023/04/10 09:29:00;;;;;;;0.40;0.30;;;;;;;14.32;43.14;95157.34;5132711;27;20435;-55
2023/04/10 09:31:31;;;;;;;0.40;0.30;;;;;;;14.03;43.18;95154.13;5132811;27;20474;-56
2023/04/10 09:34:13;;;;;;;0.40;0.30;;;;;;;13.91;43.87;95159.94;5132310;27;20442;-56
2023/04/10 09:36:42;;;;;;;0.50;0.33;;;;;;;13.92;44.29;95152.72;5105452;27;20435;-56
2023/04/10 09:39:11;;;;;;;0.50;0.50;;;;;;;14.27;43.13;95152.06;5132928;27;20866;-55
2023/04/10 09:41:51;;;;;;;0.50;0.30;;;;;;;14.00;44.05;95136.06;5132550;27;20970;-55
2023/04/10 09:44:29;;;;;;;0.40;0.33;;;;;;;14.29;44.30;95141.13;5132224;27;20470;-55
2023/04/10 09:46:57;;;;;;;0.60;0.50;;;;;;;14.49;43.27;95135.44;5132857;27;20435;-55
2023/04/10 09:49:27;;;;;;;0.50;0.50;;;;;;;14.23;43.49;95126.31;5132149;27;20465;-55
2023/04/10 09:51:56;;;;;;;2.00;0.73;;;;;;;14.42;44.18;95132.38;5132350;27;20522;-55
2023/04/10 09:54:36;;;;;;;0.40;0.37;;;;;;;14.35;44.14;95129.28;5132065;27;20430;-55
2023/04/10 09:57:07;;;;;;;5.70;1.93;;;;;;;14.38;42.57;95121.50;5132227;27;20985;-55
2023/04/10 09:59:38;;;;;;;0.50;0.50;;;;;;;14.12;46.80;95132.91;5131890;27;20447;-56
2023/04/10 10:02:09;;;;;;;17.57;0.80;;;;;;;14.20;43.34;95116.22;5131641;27;20426;-55
2023/04/10 10:04:41;;;;;;;0.60;0.30;;;;;;;14.32;42.55;95114.69;5131630;27;20478;-56
2023/04/10 10:07:09;;;;;;;0.70;0.70;;;;;;;13.71;42.54;95117.66;5131773;27;20435;-56
2023/04/10 10:09:38;;;;;;;0.40;0.30;;;;;;;13.99;42.80;95118.50;5131502;27;20454;-55
2023/04/10 10:12:09;;;;;;;0.60;0.50;;;;;;;14.10;43.37;95124.41;5131689;27;20872;-56
2023/04/10 10:14:45;;;;;;;0.73;0.73;;;;;;;14.07;43.07;95125.81;5131942;27;20439;-56
2023/04/10 10:17:18;;;;;;;0.63;0.60;;;;;;;14.07;41.80;95088.50;5131630;28;20889;-56
2023/04/10 10:19:57;;;;;;;1.80;0.30;;;;;;;14.31;42.83;95112.31;5131288;28;20439;-55
2023/04/10 10:22:27;;;;;;;0.83;0.70;;;;;;;14.72;47.69;95113.06;5131813;28;20445;-56
2023/04/10 10:24:57;;;;;;;0.53;0.53;;;;;;;14.69;44.21;95105.66;5126903;28;20574;-56
2023/04/10 10:27:27;;;;;;;0.40;0.33;;;;;;;13.93;42.31;95032.56;5124138;28;20438;-56
2023/04/10 10:29:59;;;;;;;1.20;1.10;;;;;;;14.46;44.15;95107.47;5132334;28;20457;-56
2023/04/10 10:32:35;;;;;;;0.40;0.30;;;;;;;14.27;43.37;95106.00;5126313;27;20434;-56
2023/04/10 10:35:06;;;;;;;0.40;0.30;;;;;;;14.08;43.19;95107.94;5123372;28;20443;-56
2023/04/10 10:37:36;;;;;;;0.50;0.50;;;;;;;13.94;42.10;95107.91;5127415;28;20435;-56
2023/04/10 10:40:12;;;;;;;0.50;0.33;;;;;;;14.06;41.54;95110.13;5131688;28;20439;-56
2023/04/10 10:42:45;;;;;;;0.60;0.60;;;;;;;14.34;44.45;95101.06;5131951;27;20449;-56
2023/04/10 10:45:17;;;;;;;0.40;0.40;;;;;;;14.27;42.02;95101.41;5132112;28;20553;-57
2023/04/10 10:47:49;;;;;;;0.50;0.40;;;;;;;13.95;42.48;95104.97;5134218;27;20426;-56
2023/04/10 10:50:20;;;;;;;1.40;0.70;;;;;;;14.12;43.89;95099.06;5135905;27;20439;-56
2023/04/10 10:52:52;;;;;;;0.67;0.40;;;;;;;14.32;42.67;95089.91;5135850;27;21115;-56
2023/04/10 10:55:36;;;;;;;0.70;0.70;;;;;;;14.53;43.09;95094.53;5135853;27;20441;-56
2023/04/10 10:58:06;;;;;;;0.50;0.40;;;;;;;14.78;42.18;95101.19;5125654;27;20505;-56
2023/04/10 11:01:06;;;;;;;0.60;0.60;;;;;;;15.13;42.28;95089.72;5132256;27;20810;-56
2023/04/10 11:03:38;;;;;;;0.70;0.70;;;;;;;15.36;40.88;95079.03;5135954;27;20442;-56
2023/04/10 11:06:11;;;;;;;0.30;0.20;;;;;;;15.55;40.48;95080.44;5135929;27;20522;-56
2023/04/10 11:08:51;;;;;;;0.50;0.37;;;;;;;14.90;38.59;94981.38;5135434;27;20435;-56
2023/04/10 11:11:22;;;;;;;0.83;0.70;;;;;;;15.08;38.88;95014.28;5134498;27;20951;-56
2023/04/10 11:14:16;;;;;;;0.40;0.40;;;;;;;15.42;39.96;95072.47;5135563;27;20434;-56
2023/04/10 11:16:47;;;;;;;0.40;0.30;;;;;;;15.41;40.24;95077.03;5134902;27;20438;-56
2023/04/10 11:19:18;;;;;;;0.40;0.33;;;;;;;15.66;40.35;95051.59;5135048;27;20434;-56
2023/04/10 11:22:09;;;;;;;0.40;0.30;;;;;;;15.77;38.77;95059.03;5134930;27;20471;-56
2023/04/10 11:24:58;;;;;;;0.60;0.50;;;;;;;15.52;38.33;95074.91;5133826;27;20859;-56
2023/04/10 11:27:45;;;;;;;0.50;0.50;;;;;;;16.22;38.32;95064.22;5135159;27;20446;-57
2023/04/10 11:30:30;;;;;;;0.60;0.60;;;;;;;16.34;37.77;95057.16;5135133;27;20474;-57
2023/04/10 11:32:59;;;;;;;0.67;0.27;;;;;;;16.99;38.56;95062.50;5134276;27;21026;-55
2023/04/10 11:35:30;;;;;;;1.07;0.50;;;;;;;17.29;37.35;95055.38;5135017;27;20482;-58
2023/04/10 11:38:16;;;;;;;0.40;0.40;;;;;;;17.41;35.71;95058.19;5134879;27;20438;-56
2023/04/10 11:41:03;;;;;;;0.60;0.30;;;;;;;17.60;37.23;95060.56;5135275;27;20435;-57
2023/04/10 11:43:32;;;;;;;0.57;0.57;;;;;;;16.43;36.55;94972.41;5135043;27;20439;-57
2023/04/10 11:46:06;;;;;;;0.63;0.60;;;;;;;16.59;36.60;95054.91;5134400;27;20502;-57
2023/04/10 11:48:36;;;;;;;0.40;0.40;;;;;;;16.51;37.11;95056.44;5135136;27;20502;-58
2023/04/10 11:51:10;;;;;;;3.73;0.50;;;;;;;15.88;36.68;95036.28;5134464;27;20434;-58
2023/04/10 11:53:42;;;;;;;0.30;0.20;;;;;;;16.02;36.65;95054.88;5135118;27;20439;-57